Time;durP1;ratioP1;P1;durP2;ratioP2;P2;SDS_P1;SDS_P2;PMS_P1;PMS_P2;Temp;Humidity;BMP_temperature;BMP_pressure;BME280_temperature;BME280_humidity;BME280_pressure;Samples;Min_cycle;Max_cycle;Signal;HPM_P1;HPM_P2
2021/06/21 00:00:41;;;;;;;7.97;3.90;;;;;;;;;;4997144;28;20137;-83
2021/06/21 00:03:07;;;;;;;8.48;3.70;;;;;;;;;;4996409;28;20058;-83
2021/06/21 00:05:34;;;;;;;9.85;3.40;;;;;;;;;;4996259;28;20050;-82
2021/06/21 00:08:02;;;;;;;10.73;3.88;;;;;;;;;;4997014;28;20054;-83
2021/06/21 00:10:29;;;;;;;11.88;3.53;;;;;;;;;;4996636;28;20065;-83
2021/06/21 00:12:55;;;;;;;8.13;2.88;;;;;;;;;;4996756;28;20069;-84
2021/06/21 00:15:25;;;;;;;9.10;2.97;;;;;;;;;;4997091;28;20054;-83
2021/06/21 00:17:52;;;;;;;10.73;3.28;;;;;;;;;;5000992;28;20434;-82
2021/06/21 00:20:20;;;;;;;7.35;3.42;;;;;;;;;;5000932;28;20054;-83
2021/06/21 00:22:47;;;;;;;14.18;3.88;;;;;;;;;;5004428;28;20043;-83
2021/06/21 00:25:18;;;;;;;9.95;3.65;;;;;;;;;;5004742;28;20057;-82
2021/06/21 00:27:44;;;;;;;8.35;3.33;;;;;;;;;;5005122;28;20057;-83
2021/06/21 00:30:13;;;;;;;11.35;3.83;;;;;;;;;;5000227;28;20467;-82
2021/06/21 00:32:40;;;;;;;10.23;3.70;;;;;;;;;;5004471;28;20135;-83
2021/06/21 00:35:09;;;;;;;11.20;3.17;;;;;;;;;;5005357;28;20046;-83
2021/06/21 00:37:35;;;;;;;8.82;3.42;;;;;;;;;;5006359;28;20050;-83
2021/06/21 00:40:03;;;;;;;8.27;3.00;;;;;;;;;;5007048;28;20055;-85
2021/06/21 00:42:31;;;;;;;9.02;3.53;;;;;;;;;;5006930;28;20042;-84
2021/06/21 00:44:57;;;;;;;8.25;3.33;;;;;;;;;;5006600;28;20057;-83
2021/06/21 00:47:24;;;;;;;11.38;3.28;;;;;;;;;;5008023;28;20061;-83
2021/06/21 00:49:51;;;;;;;9.95;3.22;;;;;;;;;;5009214;28;20077;-85
2021/06/21 00:52:18;;;;;;;7.28;3.05;;;;;;;;;;4991791;28;20042;-85
2021/06/21 00:54:45;;;;;;;10.18;3.58;;;;;;;;;;4998036;28;20490;-86
2021/06/21 00:57:12;;;;;;;8.80;3.35;;;;;;;;;;4988149;28;20043;-83
2021/06/21 00:59:40;;;;;;;8.70;3.38;;;;;;;;;;4992793;28;20078;-87
2021/06/21 01:02:07;;;;;;;11.85;3.75;;;;;;;;;;5011976;28;20056;-85
2021/06/21 01:04:34;;;;;;;11.70;3.85;;;;;;;;;;5004973;28;20102;-82
2021/06/21 01:07:01;;;;;;;8.00;2.92;;;;;;;;;;4990402;28;20054;-82
2021/06/21 01:09:27;;;;;;;8.38;3.25;;;;;;;;;;4979677;28;20058;-82
2021/06/21 01:11:56;;;;;;;7.05;2.80;;;;;;;;;;4978978;28;20484;-83
2021/06/21 01:14:29;;;;;;;11.07;4.15;;;;;;;;;;4987215;28;20044;-83
2021/06/21 01:17:02;;;;;;;8.98;2.88;;;;;;;;;;4997741;28;20046;-82
2021/06/21 01:20:00;;;;;;;6.90;2.97;;;;;;;;;;4997665;28;20132;-83
2021/06/21 01:23:03;;;;;;;8.77;3.20;;;;;;;;;;4997537;28;20384;-83
2021/06/21 01:25:33;;;;;;;9.40;2.63;;;;;;;;;;4997000;28;20050;-83
2021/06/21 01:28:03;;;;;;;6.97;2.63;;;;;;;;;;4996293;28;20050;-82
2021/06/21 01:30:40;;;;;;;6.07;3.22;;;;;;;;;;4997482;28;20510;-83
2021/06/21 01:33:10;;;;;;;7.93;3.33;;;;;;;;;;4996950;28;20150;-83
2021/06/21 01:35:39;;;;;;;11.18;3.35;;;;;;;;;;4996987;28;20046;-82
2021/06/21 01:38:07;;;;;;;9.50;3.38;;;;;;;;;;4985482;28;20055;-83
2021/06/21 01:40:41;;;;;;;10.48;3.58;;;;;;;;;;4987222;28;20045;-83
2021/06/21 01:43:12;;;;;;;7.30;3.33;;;;;;;;;;5016284;28;20042;-82
2021/06/21 01:45:39;;;;;;;4.85;2.80;;;;;;;;;;5016446;28;20064;-82
2021/06/21 01:48:08;;;;;;;8.45;3.15;;;;;;;;;;5016547;28;20061;-83
2021/06/21 01:50:35;;;;;;;8.77;3.30;;;;;;;;;;5016543;28;20053;-83
2021/06/21 01:53:06;;;;;;;9.43;3.47;;;;;;;;;;5015850;28;20138;-83
2021/06/21 01:55:34;;;;;;;8.18;3.40;;;;;;;;;;5015325;28;20513;-82
2021/06/21 01:58:01;;;;;;;8.27;3.13;;;;;;;;;;5015867;28;20072;-83
2021/06/21 02:00:28;;;;;;;8.30;3.22;;;;;;;;;;5016833;28;20042;-82
2021/06/21 02:02:57;;;;;;;9.15;2.97;;;;;;;;;;5016596;28;20056;-82
2021/06/21 02:05:26;;;;;;;8.20;3.42;;;;;;;;;;5016689;28;20047;-82
2021/06/21 02:07:52;;;;;;;7.18;2.92;;;;;;;;;;5011530;28;20057;-83
2021/06/21 02:10:20;;;;;;;8.35;3.00;;;;;;;;;;4982715;28;20090;-83
2021/06/21 02:12:48;;;;;;;12.02;3.42;;;;;;;;;;4977924;28;20039;-83
2021/06/21 02:15:16;;;;;;;9.07;3.10;;;;;;;;;;4978548;28;20055;-84
2021/06/21 02:17:44;;;;;;;7.82;2.92;;;;;;;;;;4977505;28;20391;-83
2021/06/21 02:20:13;;;;;;;11.30;3.45;;;;;;;;;;4977603;28;20054;-83
2021/06/21 02:22:41;;;;;;;11.55;3.88;;;;;;;;;;4978571;28;20054;-83
2021/06/21 02:25:08;;;;;;;9.02;3.42;;;;;;;;;;4995627;28;20459;-82
2021/06/21 02:27:37;;;;;;;10.68;3.55;;;;;;;;;;4995416;28;20061;-82
2021/06/21 02:30:06;;;;;;;7.55;3.08;;;;;;;;;;4997418;28;20053;-82
2021/06/21 02:32:33;;;;;;;8.55;3.17;;;;;;;;;;4995923;28;20112;-84
2021/06/21 02:34:59;;;;;;;7.25;3.00;;;;;;;;;;4995544;28;20068;-83
2021/06/21 02:37:26;;;;;;;8.15;3.42;;;;;;;;;;4996424;28;20046;-82
2021/06/21 02:39:54;;;;;;;4.90;2.65;;;;;;;;;;4996844;28;20050;-83
2021/06/21 02:42:20;;;;;;;9.57;3.53;;;;;;;;;;4996181;28;20050;-82
2021/06/21 02:44:47;;;;;;;7.65;2.72;;;;;;;;;;4997436;28;20402;-82
2021/06/21 02:47:14;;;;;;;13.07;3.22;;;;;;;;;;4996971;28;20050;-83
2021/06/21 02:49:41;;;;;;;6.78;3.10;;;;;;;;;;4996510;28;20050;-84
2021/06/21 02:52:14;;;;;;;8.68;3.15;;;;;;;;;;4997296;28;20491;-82
2021/06/21 02:54:44;;;;;;;9.23;3.42;;;;;;;;;;4997174;28;20452;-82
2021/06/21 02:57:17;;;;;;;9.00;2.90;;;;;;;;;;4995867;28;20050;-82
2021/06/21 02:59:45;;;;;;;7.88;3.65;;;;;;;;;;4991964;28;20043;-82
2021/06/21 03:02:12;;;;;;;9.95;3.00;;;;;;;;;;4976553;28;20086;-83
2021/06/21 03:04:40;;;;;;;8.80;3.45;;;;;;;;;;4976700;28;20043;-82
2021/06/21 03:07:07;;;;;;;13.55;3.75;;;;;;;;;;4977540;28;20058;-82
2021/06/21 03:09:34;;;;;;;6.63;2.90;;;;;;;;;;4977128;28;20057;-82
2021/06/21 03:12:01;;;;;;;9.27;3.50;;;;;;;;;;4983288;28;20046;-82
2021/06/21 03:14:31;;;;;;;10.50;3.67;;;;;;;;;;4977931;28;20058;-82
2021/06/21 03:16:59;;;;;;;8.65;3.13;;;;;;;;;;4976406;28;20058;-83
2021/06/21 03:19:27;;;;;;;9.85;3.47;;;;;;;;;;4977075;28;20054;-83
2021/06/21 03:21:54;;;;;;;14.00;3.85;;;;;;;;;;4976408;28;20133;-83
2021/06/21 03:24:22;;;;;;;8.90;3.20;;;;;;;;;;4976585;28;20407;-82
2021/06/21 03:26:49;;;;;;;8.68;3.10;;;;;;;;;;4959425;28;20058;-82
2021/06/21 03:29:17;;;;;;;10.10;3.20;;;;;;;;;;4976484;28;20058;-82
2021/06/21 03:31:46;;;;;;;8.95;3.13;;;;;;;;;;4993448;28;20051;-84
2021/06/21 03:34:12;;;;;;;7.10;3.20;;;;;;;;;;4996183;28;20046;-83
2021/06/21 03:36:39;;;;;;;10.43;3.40;;;;;;;;;;4996487;28;20408;-82
2021/06/21 03:39:06;;;;;;;9.63;2.63;;;;;;;;;;4996476;28;20046;-84
2021/06/21 03:41:33;;;;;;;11.05;2.88;;;;;;;;;;4977868;28;20043;-82
2021/06/21 03:44:00;;;;;;;15.38;3.58;;;;;;;;;;4977381;28;20061;-84
2021/06/21 03:46:26;;;;;;;8.13;2.83;;;;;;;;;;4977101;28;20061;-81
2021/06/21 03:48:54;;;;;;;11.65;3.00;;;;;;;;;;4986575;28;20055;-82
2021/06/21 03:51:21;;;;;;;7.72;2.92;;;;;;;;;;4997269;28;20140;-82
2021/06/21 03:53:49;;;;;;;7.13;2.60;;;;;;;;;;4996944;28;20046;-83
2021/06/21 03:56:15;;;;;;;12.60;2.78;;;;;;;;;;4997403;28;20046;-82
2021/06/21 03:58:42;;;;;;;10.20;2.58;;;;;;;;;;4995727;28;20046;-83
2021/06/21 04:01:09;;;;;;;12.07;2.88;;;;;;;;;;4987079;28;20047;-81
2021/06/21 04:03:35;;;;;;;11.85;3.30;;;;;;;;;;4977542;28;20061;-81
2021/06/21 04:06:03;;;;;;;9.70;2.90;;;;;;;;;;4976966;28;20054;-82
2021/06/21 04:08:30;;;;;;;11.30;3.00;;;;;;;;;;4976825;28;20054;-83
2021/06/21 04:10:56;;;;;;;14.20;3.40;;;;;;;;;;4975951;28;20050;-82
2021/06/21 04:13:23;;;;;;;11.43;3.92;;;;;;;;;;4976087;28;20047;-82
2021/06/21 04:15:49;;;;;;;8.18;3.25;;;;;;;;;;4976240;28;20043;-82
2021/06/21 04:18:17;;;;;;;9.40;2.85;;;;;;;;;;4975766;28;20059;-82
2021/06/21 04:20:45;;;;;;;12.15;3.15;;;;;;;;;;4987474;28;20058;-82
2021/06/21 04:23:13;;;;;;;11.85;3.42;;;;;;;;;;4994681;28;20050;-83
2021/06/21 04:25:40;;;;;;;8.48;2.80;;;;;;;;;;4995386;28;20471;-82
2021/06/21 04:28:08;;;;;;;10.93;3.00;;;;;;;;;;4980776;28;20050;-82
2021/06/21 04:30:34;;;;;;;10.55;3.60;;;;;;;;;;4993096;28;20109;-83
2021/06/21 04:33:01;;;;;;;6.82;2.53;;;;;;;;;;4979449;28;20054;-82
2021/06/21 04:35:29;;;;;;;13.45;3.42;;;;;;;;;;4979067;28;20051;-82
2021/06/21 04:37:56;;;;;;;10.48;2.78;;;;;;;;;;4979300;28;20058;-82
2021/06/21 04:40:26;;;;;;;9.80;2.92;;;;;;;;;;4962236;28;20051;-82
2021/06/21 04:42:52;;;;;;;7.40;2.35;;;;;;;;;;4980368;28;20051;-82
2021/06/21 04:45:19;;;;;;;9.45;3.58;;;;;;;;;;4979776;28;20464;-84
2021/06/21 04:47:46;;;;;;;9.85;2.55;;;;;;;;;;4980548;28;20074;-84
2021/06/21 04:50:16;;;;;;;11.82;2.78;;;;;;;;;;4978019;28;20050;-83
2021/06/21 04:52:44;;;;;;;10.18;2.25;;;;;;;;;;4980278;28;20054;-83
2021/06/21 04:55:12;;;;;;;9.82;2.75;;;;;;;;;;4984246;28;20483;-83
2021/06/21 04:57:40;;;;;;;6.38;2.38;;;;;;;;;;5000300;28;20050;-82
2021/06/21 05:00:09;;;;;;;7.97;2.40;;;;;;;;;;4997856;28;20046;-82
2021/06/21 05:02:35;;;;;;;8.70;2.95;;;;;;;;;;4999837;28;20061;-83
2021/06/21 05:05:02;;;;;;;9.77;2.08;;;;;;;;;;4989388;28;20047;-84
2021/06/21 05:07:29;;;;;;;9.43;2.75;;;;;;;;;;4994271;28;20419;-83
2021/06/21 05:09:55;;;;;;;9.40;2.30;;;;;;;;;;4993571;28;20050;-84
2021/06/21 05:12:22;;;;;;;9.10;2.90;;;;;;;;;;4985599;28;20049;-83
2021/06/21 05:14:50;;;;;;;11.52;3.00;;;;;;;;;;4991569;28;20043;-82
2021/06/21 05:17:18;;;;;;;8.45;2.80;;;;;;;;;;4972242;28;20098;-81
2021/06/21 05:19:46;;;;;;;11.77;2.42;;;;;;;;;;4997181;28;20054;-81
2021/06/21 05:22:12;;;;;;;6.68;2.65;;;;;;;;;;4989862;28;20073;-82
2021/06/21 05:24:39;;;;;;;9.68;2.38;;;;;;;;;;4988655;28;20054;-81
2021/06/21 05:27:06;;;;;;;9.00;3.40;;;;;;;;;;4996984;28;20046;-81
2021/06/21 05:29:33;;;;;;;15.35;3.03;;;;;;;;;;4981760;28;20050;-81
2021/06/21 05:32:02;;;;;;;9.45;3.22;;;;;;;;;;4981613;28;20075;-80
2021/06/21 05:34:28;;;;;;;8.73;2.40;;;;;;;;;;4981116;28;20138;-81
2021/06/21 05:36:55;;;;;;;19.95;3.30;;;;;;;;;;4983953;28;20047;-81
2021/06/21 05:39:22;;;;;;;10.05;2.53;;;;;;;;;;4995476;28;20053;-83
2021/06/21 05:41:48;;;;;;;10.45;2.45;;;;;;;;;;4991651;28;20046;-81
2021/06/21 05:44:15;;;;;;;7.63;2.42;;;;;;;;;;4995126;28;20098;-82
2021/06/21 05:46:41;;;;;;;8.63;2.50;;;;;;;;;;4996894;28;20050;-81
2021/06/21 05:49:09;;;;;;;9.95;2.42;;;;;;;;;;4996446;28;20050;-81
2021/06/21 05:51:35;;;;;;;8.00;2.10;;;;;;;;;;4996409;28;20050;-82
2021/06/21 05:54:02;;;;;;;11.60;2.65;;;;;;;;;;4996732;28;20050;-82
2021/06/21 05:56:28;;;;;;;9.63;2.55;;;;;;;;;;4979803;28;20053;-81
2021/06/21 05:58:55;;;;;;;7.20;2.05;;;;;;;;;;4994236;28;20046;-81
2021/06/21 06:01:21;;;;;;;7.85;2.28;;;;;;;;;;4995885;28;20050;-81
2021/06/21 06:03:48;;;;;;;7.97;2.60;;;;;;;;;;4996712;28;20058;-81
2021/06/21 06:06:16;;;;;;;15.48;3.28;;;;;;;;;;4979062;28;20245;-81
2021/06/21 06:08:42;;;;;;;5.95;2.25;;;;;;;;;;4996159;28;20098;-82
2021/06/21 06:11:09;;;;;;;11.50;3.17;;;;;;;;;;4996273;28;20054;-82
2021/06/21 06:13:36;;;;;;;7.50;2.22;;;;;;;;;;4996267;28;20114;-81
2021/06/21 06:16:02;;;;;;;34.10;5.07;;;;;;;;;;4996533;28;20137;-82
2021/06/21 06:18:29;;;;;;;11.38;2.83;;;;;;;;;;4997550;28;20042;-81
2021/06/21 06:20:55;;;;;;;8.15;2.00;;;;;;;;;;4991313;28;20045;-81
2021/06/21 06:23:23;;;;;;;7.88;2.92;;;;;;;;;;4994473;28;20046;-81
2021/06/21 06:25:50;;;;;;;7.85;2.10;;;;;;;;;;4996324;28;20455;-81
2021/06/21 06:28:17;;;;;;;8.85;2.50;;;;;;;;;;4995757;28;20046;-81
2021/06/21 06:30:44;;;;;;;9.40;2.47;;;;;;;;;;4995196;28;20050;-82
2021/06/21 06:33:10;;;;;;;6.88;2.40;;;;;;;;;;4996076;28;20479;-81
2021/06/21 06:35:37;;;;;;;10.00;2.50;;;;;;;;;;4995155;28;20050;-81
2021/06/21 06:38:04;;;;;;;9.52;2.70;;;;;;;;;;4978560;28;20078;-83
2021/06/21 06:40:31;;;;;;;7.22;2.58;;;;;;;;;;4994990;28;20129;-81
2021/06/21 06:42:58;;;;;;;6.03;2.17;;;;;;;;;;4995493;28;20061;-81
2021/06/21 06:45:24;;;;;;;7.43;1.90;;;;;;;;;;4994769;28;20050;-81
2021/06/21 06:47:51;;;;;;;8.02;2.33;;;;;;;;;;4995696;28;20046;-81
2021/06/21 06:50:17;;;;;;;7.57;2.47;;;;;;;;;;4994291;28;20050;-83
2021/06/21 06:52:45;;;;;;;9.00;2.30;;;;;;;;;;4994959;28;20054;-81
2021/06/21 06:57:59;;;;;;;7.50;2.23;;;;;;;;;;4995057;28;20106;-81
2021/06/21 07:00:25;;;;;;;7.47;2.30;;;;;;;;;;4994736;28;20054;-82
2021/06/21 07:02:52;;;;;;;8.07;2.22;;;;;;;;;;4992904;28;20050;-81
2021/06/21 07:05:19;;;;;;;13.50;3.05;;;;;;;;;;4992064;28;20471;-81
2021/06/21 07:07:45;;;;;;;6.75;2.17;;;;;;;;;;4994995;28;20069;-81
2021/06/21 07:10:13;;;;;;;9.88;3.00;;;;;;;;;;4991130;28;20170;-83
2021/06/21 07:12:39;;;;;;;8.55;2.40;;;;;;;;;;4995131;28;20077;-81
2021/06/21 07:15:08;;;;;;;7.05;2.60;;;;;;;;;;4995605;28;20047;-80
2021/06/21 07:17:34;;;;;;;7.40;2.20;;;;;;;;;;4988738;28;20055;-81
2021/06/21 07:20:01;;;;;;;8.65;2.72;;;;;;;;;;4991466;28;20048;-81
2021/06/21 07:22:27;;;;;;;7.45;2.03;;;;;;;;;;4995953;28;20129;-80
2021/06/21 07:24:54;;;;;;;6.68;2.35;;;;;;;;;;4986856;28;20058;-80
2021/06/21 07:27:20;;;;;;;7.30;2.00;;;;;;;;;;4989957;28;20062;-82
2021/06/21 07:29:47;;;;;;;7.60;2.20;;;;;;;;;;4990050;28;20046;-80
2021/06/21 07:32:15;;;;;;;9.77;2.33;;;;;;;;;;4994627;28;20054;-80
2021/06/21 07:34:42;;;;;;;6.72;1.70;;;;;;;;;;4987842;28;20051;-79
2021/06/21 07:37:09;;;;;;;9.43;2.00;;;;;;;;;;4991380;28;20050;-81
2021/06/21 07:39:36;;;;;;;6.40;1.92;;;;;;;;;;4993738;28;20122;-80
2021/06/21 07:42:02;;;;;;;10.05;2.08;;;;;;;;;;4995629;28;20054;-80
2021/06/21 07:44:29;;;;;;;7.72;2.20;;;;;;;;;;4994500;28;20073;-84
2021/06/21 07:46:56;;;;;;;7.82;2.03;;;;;;;;;;4996041;28;20503;-79
2021/06/21 07:49:24;;;;;;;8.52;2.75;;;;;;;;;;4995808;28;20046;-88
2021/06/21 07:51:50;;;;;;;8.13;2.25;;;;;;;;;;4991674;28;20430;-81
2021/06/21 07:54:19;;;;;;;8.25;2.90;;;;;;;;;;4997575;28;20046;-82
2021/06/21 07:56:45;;;;;;;5.57;1.67;;;;;;;;;;4993339;28;20088;-82
2021/06/21 07:59:13;;;;;;;8.40;2.50;;;;;;;;;;4995809;28;20046;-81
2021/06/21 08:01:39;;;;;;;4.88;2.00;;;;;;;;;;4996696;28;20137;-83
2021/06/21 08:04:08;;;;;;;7.53;2.45;;;;;;;;;;4997147;28;20133;-81
2021/06/21 08:06:37;;;;;;;7.35;2.47;;;;;;;;;;4989883;28;20058;-81
2021/06/21 08:09:04;;;;;;;7.38;2.30;;;;;;;;;;4977210;28;20138;-82
2021/06/21 08:11:30;;;;;;;6.57;2.00;;;;;;;;;;4976367;28;20043;-81
2021/06/21 08:13:57;;;;;;;8.68;3.08;;;;;;;;;;4977906;28;20050;-83
2021/06/21 08:16:23;;;;;;;9.10;2.10;;;;;;;;;;4983339;28;20046;-82
2021/06/21 08:18:50;;;;;;;6.75;2.08;;;;;;;;;;4997903;28;20105;-82
2021/06/21 08:21:16;;;;;;;12.90;2.63;;;;;;;;;;4996987;28;20042;-81
2021/06/21 08:23:44;;;;;;;6.53;2.28;;;;;;;;;;4997281;28;20054;-81
2021/06/21 08:26:12;;;;;;;9.93;2.88;;;;;;;;;;4996528;28;20045;-82
2021/06/21 08:28:38;;;;;;;22.35;3.80;;;;;;;;;;4982090;28;20077;-81
2021/06/21 08:31:05;;;;;;;8.02;1.92;;;;;;;;;;4988110;28;20069;-81
2021/06/21 08:33:31;;;;;;;8.95;1.95;;;;;;;;;;4991155;28;20039;-82
2021/06/21 08:35:58;;;;;;;7.45;2.55;;;;;;;;;;4984280;28;20047;-81
2021/06/21 08:38:24;;;;;;;7.20;1.90;;;;;;;;;;4993392;28;20069;-81
2021/06/21 08:40:52;;;;;;;5.95;2.30;;;;;;;;;;4992693;28;20042;-80
2021/06/21 08:43:19;;;;;;;7.47;2.28;;;;;;;;;;4994131;28;20039;-81
2021/06/21 08:45:48;;;;;;;9.63;2.47;;;;;;;;;;4991887;28;20046;-82
2021/06/21 08:48:15;;;;;;;5.78;1.70;;;;;;;;;;4983346;28;20199;-83
2021/06/21 08:50:42;;;;;;;5.15;1.42;;;;;;;;;;4987349;28;20057;-85
2021/06/21 08:53:10;;;;;;;7.00;1.80;;;;;;;;;;4989709;28;20047;-81
2021/06/21 08:55:36;;;;;;;6.03;1.80;;;;;;;;;;5002235;28;20057;-82
2021/06/21 08:58:04;;;;;;;5.78;2.00;;;;;;;;;;4998769;28;20057;-79
2021/06/21 09:00:31;;;;;;;4.28;1.70;;;;;;;;;;4991970;28;20501;-79
2021/06/21 09:03:02;;;;;;;7.60;2.03;;;;;;;;;;4996007;28;20052;-83
2021/06/21 09:05:32;;;;;;;7.13;2.15;;;;;;;;;;4983867;28;20058;-81
2021/06/21 09:08:03;;;;;;;5.03;1.80;;;;;;;;;;4988034;28;20049;-81
2021/06/21 09:10:30;;;;;;;6.57;2.25;;;;;;;;;;4985440;28;20066;-82
2021/06/21 09:13:11;;;;;;;4.93;1.65;;;;;;;;;;4988173;28;20056;-84
2021/06/21 09:15:39;;;;;;;8.88;2.75;;;;;;;;;;4991716;28;20549;-82
2021/06/21 09:18:29;;;;;;;4.63;1.83;;;;;;;;;;4988529;28;20049;-82
2021/06/21 09:21:38;;;;;;;8.30;2.03;;;;;;;;;;4997896;28;20054;-82
2021/06/21 09:24:15;;;;;;;6.43;1.83;;;;;;;;;;4986422;28;20097;-82
2021/06/21 09:26:41;;;;;;;6.20;2.28;;;;;;;;;;4995192;28;20046;-82
2021/06/21 09:29:09;;;;;;;4.53;1.75;;;;;;;;;;4986601;28;20054;-81
2021/06/21 09:31:49;;;;;;;6.78;1.40;;;;;;;;;;4995458;28;20046;-81
2021/06/21 09:34:18;;;;;;;5.22;1.75;;;;;;;;;;4992561;28;20074;-82
2021/06/21 09:36:44;;;;;;;5.50;1.95;;;;;;;;;;4989438;28;20049;-81
2021/06/21 09:39:23;;;;;;;8.05;2.00;;;;;;;;;;4985679;28;20046;-84
2021/06/21 09:42:10;;;;;;;5.43;1.77;;;;;;;;;;4988466;28;20058;-81
2021/06/21 09:44:40;;;;;;;4.93;1.75;;;;;;;;;;4993564;28;20042;-81
2021/06/21 09:47:22;;;;;;;9.27;1.70;;;;;;;;;;4994710;28;20510;-83
2021/06/21 09:50:10;;;;;;;6.47;1.95;;;;;;;;;;4994762;28;20074;-81
2021/06/21 09:52:43;;;;;;;5.60;2.05;;;;;;;;;;4995348;28;20057;-82
2021/06/21 09:55:16;;;;;;;6.75;1.67;;;;;;;;;;4987080;28;20070;-83
2021/06/21 09:57:44;;;;;;;6.55;1.75;;;;;;;;;;4995725;28;20050;-83
2021/06/21 10:00:14;;;;;;;5.65;1.70;;;;;;;;;;4996055;28;20093;-82
2021/06/21 10:02:41;;;;;;;8.73;1.70;;;;;;;;;;4995165;28;20043;-87
2021/06/21 10:05:19;;;;;;;5.65;1.83;;;;;;;;;;4995076;28;20046;-81
2021/06/21 10:07:46;;;;;;;6.20;2.33;;;;;;;;;;4995452;28;20066;-84
2021/06/21 10:10:14;;;;;;;8.00;1.83;;;;;;;;;;4994767;28;20058;-81
2021/06/21 10:12:41;;;;;;;5.88;1.70;;;;;;;;;;4995821;28;20134;-82
2021/06/21 10:15:09;;;;;;;6.32;1.60;;;;;;;;;;4996042;28;20046;-82
2021/06/21 10:17:37;;;;;;;6.50;1.83;;;;;;;;;;4983540;28;20399;-83
2021/06/21 10:20:05;;;;;;;6.78;1.40;;;;;;;;;;4987448;28;20046;-81
2021/06/21 10:22:32;;;;;;;7.47;1.60;;;;;;;;;;4991641;28;20061;-81
2021/06/21 10:25:00;;;;;;;5.03;1.42;;;;;;;;;;4995663;28;20661;-83
2021/06/21 10:27:30;;;;;;;4.22;1.50;;;;;;;;;;4990236;28;20080;-81
2021/06/21 10:29:56;;;;;;;4.65;1.50;;;;;;;;;;4993672;28;20530;-81
2021/06/21 10:32:24;;;;;;;5.80;1.58;;;;;;;;;;4988854;28;20094;-82
2021/06/21 10:34:52;;;;;;;4.88;1.35;;;;;;;;;;4981314;28;20507;-82
2021/06/21 10:37:21;;;;;;;3.25;1.48;;;;;;;;;;4984662;28;20050;-82
2021/06/21 10:39:49;;;;;;;6.13;1.70;;;;;;;;;;4988010;28;20050;-82
2021/06/21 10:42:20;;;;;;;4.18;1.45;;;;;;;;;;4993218;28;20051;-81
2021/06/21 10:44:49;;;;;;;4.60;1.60;;;;;;;;;;4976779;28;20496;-81
2021/06/21 10:47:27;;;;;;;6.05;1.70;;;;;;;;;;4975712;28;20046;-82
2021/06/21 10:49:59;;;;;;;7.70;1.25;;;;;;;;;;4975856;28;20076;-81
2021/06/21 10:52:40;;;;;;;5.90;1.85;;;;;;;;;;4976055;28;20050;-81
2021/06/21 10:55:49;;;;;;;7.70;1.95;;;;;;;;;;4975838;28;20078;-82
2021/06/21 10:58:43;;;;;;;4.13;1.60;;;;;;;;;;4975097;28;20051;-82
2021/06/21 11:01:16;;;;;;;9.70;1.70;;;;;;;;;;4980659;28;20043;-84
2021/06/21 11:03:42;;;;;;;4.40;1.45;;;;;;;;;;4994765;28;20137;-83
2021/06/21 11:06:37;;;;;;;6.07;1.63;;;;;;;;;;4994997;28;20046;-83
2021/06/21 11:09:06;;;;;;;6.73;2.30;;;;;;;;;;4994741;28;20057;-82
2021/06/21 11:11:46;;;;;;;4.80;1.55;;;;;;;;;;4994608;28;20058;-84
2021/06/21 11:14:18;;;;;;;5.97;1.50;;;;;;;;;;4994485;28;20046;-82
2021/06/21 11:16:46;;;;;;;6.55;2.05;;;;;;;;;;4994616;28;20153;-83
2021/06/21 11:19:41;;;;;;;5.10;1.63;;;;;;;;;;4994217;28;20047;-88
2021/06/21 11:22:10;;;;;;;5.70;2.05;;;;;;;;;;4963176;28;20058;-82
2021/06/21 11:24:58;;;;;;;3.88;1.70;;;;;;;;;;4975350;28;20077;-83
2021/06/21 11:27:41;;;;;;;8.00;1.77;;;;;;;;;;4969985;28;20055;-82
2021/06/21 11:30:27;;;;;;;6.45;1.55;;;;;;;;;;4987083;28;20077;-83
2021/06/21 11:32:56;;;;;;;6.05;2.00;;;;;;;;;;4992699;28;20061;-82
2021/06/21 11:35:56;;;;;;;7.10;2.08;;;;;;;;;;4992746;28;20490;-84
2021/06/21 11:38:35;;;;;;;6.78;1.67;;;;;;;;;;4993155;28;20134;-83
2021/06/21 11:41:27;;;;;;;4.78;1.77;;;;;;;;;;4986501;28;20049;-80
2021/06/21 11:43:56;;;;;;;5.75;1.45;;;;;;;;;;4993135;28;20141;-84
2021/06/21 11:46:44;;;;;;;6.30;1.83;;;;;;;;;;4992675;28;20057;-82
2021/06/21 11:49:12;;;;;;;6.88;2.00;;;;;;;;;;4981269;28;20384;-84
2021/06/21 11:51:40;;;;;;;4.68;1.30;;;;;;;;;;4991035;28;20415;-83
2021/06/21 11:54:11;;;;;;;4.65;1.67;;;;;;;;;;4993288;28;20057;-82
2021/06/21 11:56:37;;;;;;;8.20;1.80;;;;;;;;;;4992706;28;20043;-87
2021/06/21 11:59:03;;;;;;;4.00;1.60;;;;;;;;;;4992859;28;20042;-83
2021/06/21 12:01:30;;;;;;;4.82;1.60;;;;;;;;;;4992664;28;20400;-83
2021/06/21 12:03:57;;;;;;;11.45;1.88;;;;;;;;;;4993150;28;20046;-82
2021/06/21 12:06:24;;;;;;;3.78;1.30;;;;;;;;;;4993324;28;20130;-83
2021/06/21 12:08:50;;;;;;;7.50;1.60;;;;;;;;;;4992459;28;20051;-82
2021/06/21 12:11:21;;;;;;;5.43;1.75;;;;;;;;;;4993937;28;20483;-82
2021/06/21 12:13:55;;;;;;;5.63;1.48;;;;;;;;;;4999422;28;20089;-82
2021/06/21 12:16:23;;;;;;;7.05;1.65;;;;;;;;;;4999908;28;20100;-82
2021/06/21 12:18:54;;;;;;;5.82;1.40;;;;;;;;;;4993954;28;20419;-80
2021/06/21 12:21:33;;;;;;;5.38;1.52;;;;;;;;;;4991666;28;20050;-80
2021/06/21 12:24:14;;;;;;;5.28;1.98;;;;;;;;;;4999665;28;20495;-80
2021/06/21 12:26:42;;;;;;;6.97;2.15;;;;;;;;;;5000265;28;20057;-81
2021/06/21 12:29:20;;;;;;;6.82;1.50;;;;;;;;;;5000159;28;20042;-80
2021/06/21 12:31:59;;;;;;;6.55;2.05;;;;;;;;;;5000208;28;20525;-80
2021/06/21 12:34:44;;;;;;;6.57;2.17;;;;;;;;;;5000302;28;20047;-83
2021/06/21 12:37:12;;;;;;;6.20;1.42;;;;;;;;;;4999291;28;20052;-81
2021/06/21 12:39:39;;;;;;;9.00;1.92;;;;;;;;;;4999554;28;20049;-81
2021/06/21 12:42:10;;;;;;;9.38;1.80;;;;;;;;;;5000472;28;20122;-81
2021/06/21 12:44:36;;;;;;;13.52;2.65;;;;;;;;;;4999955;28;20501;-83
2021/06/21 12:47:14;;;;;;;6.18;1.92;;;;;;;;;;5000085;28;20050;-80
2021/06/21 12:49:41;;;;;;;17.65;2.90;;;;;;;;;;4992361;28;20050;-80
2021/06/21 12:52:08;;;;;;;12.02;2.10;;;;;;;;;;4981022;28;20057;-80
2021/06/21 12:54:35;;;;;;;18.15;3.05;;;;;;;;;;4980417;28;20053;-81
2021/06/21 12:57:02;;;;;;;10.45;2.30;;;;;;;;;;4980495;28;20054;-80
2021/06/21 12:59:31;;;;;;;10.60;1.90;;;;;;;;;;4986096;28;20042;-83
2021/06/21 13:01:59;;;;;;;12.65;2.72;;;;;;;;;;4999338;28;20050;-87
2021/06/21 13:04:25;;;;;;;7.70;1.73;;;;;;;;;;4995716;28;20410;-83
2021/06/21 13:06:57;;;;;;;4.50;2.05;;;;;;;;;;4998853;28;20054;-83
2021/06/21 13:09:24;;;;;;;6.65;1.80;;;;;;;;;;4993084;28;20483;-83
2021/06/21 13:11:56;;;;;;;7.93;1.88;;;;;;;;;;4980216;28;20519;-85
2021/06/21 13:14:30;;;;;;;4.68;1.50;;;;;;;;;;4979417;28;20689;-81
2021/06/21 13:17:13;;;;;;;5.55;2.13;;;;;;;;;;4984088;28;20406;-81
2021/06/21 13:19:45;;;;;;;4.50;1.45;;;;;;;;;;4991103;28;20058;-82
2021/06/21 13:22:13;;;;;;;5.53;1.70;;;;;;;;;;4991653;28;20137;-84
2021/06/21 13:24:39;;;;;;;6.57;1.80;;;;;;;;;;4984858;28;20062;-82
2021/06/21 13:27:19;;;;;;;5.90;1.65;;;;;;;;;;4986994;28;20039;-84
2021/06/21 13:29:47;;;;;;;5.38;1.48;;;;;;;;;;4992036;28;20665;-84
2021/06/21 13:32:20;;;;;;;6.35;1.60;;;;;;;;;;4993004;28;20050;-82
2021/06/21 13:34:49;;;;;;;6.50;1.52;;;;;;;;;;4994898;28;20403;-82
2021/06/21 13:37:23;;;;;;;9.48;2.45;;;;;;;;;;4989890;28;20043;-82
2021/06/21 13:39:54;;;;;;;9.27;2.83;;;;;;;;;;4992835;28;20043;-83
2021/06/21 13:42:30;;;;;;;7.63;2.28;;;;;;;;;;4994369;28;20510;-82
2021/06/21 13:44:58;;;;;;;8.02;1.73;;;;;;;;;;4988645;28;20144;-82
2021/06/21 13:47:35;;;;;;;6.03;1.70;;;;;;;;;;4992736;28;20375;-84
2021/06/21 13:50:04;;;;;;;5.45;1.85;;;;;;;;;;4986487;28;20051;-82
2021/06/21 13:52:39;;;;;;;7.57;1.88;;;;;;;;;;4984661;28;20054;-83
2021/06/21 13:55:07;;;;;;;6.88;1.88;;;;;;;;;;4993509;28;20050;-84
2021/06/21 13:57:38;;;;;;;7.22;1.90;;;;;;;;;;4985696;28;20050;-85
2021/06/21 14:00:09;;;;;;;10.15;2.22;;;;;;;;;;4989742;28;20046;-84
2021/06/21 14:02:38;;;;;;;12.10;2.30;;;;;;;;;;4990072;28;20050;-86
2021/06/21 14:05:06;;;;;;;13.27;2.58;;;;;;;;;;4991213;28;20399;-83
2021/06/21 14:07:33;;;;;;;10.23;2.78;;;;;;;;;;4994980;28;20144;-82
2021/06/21 14:10:00;;;;;;;9.38;2.45;;;;;;;;;;4994837;28;20115;-84
2021/06/21 14:12:26;;;;;;;7.47;1.83;;;;;;;;;;4985079;28;20408;-85
2021/06/21 14:14:53;;;;;;;9.95;2.15;;;;;;;;;;4995398;28;20054;-83
2021/06/21 14:17:23;;;;;;;9.15;2.60;;;;;;;;;;4995319;28;20050;-86
2021/06/21 14:19:49;;;;;;;8.30;2.00;;;;;;;;;;4994397;28;20042;-83
2021/06/21 14:22:16;;;;;;;8.18;2.22;;;;;;;;;;4988792;28;20046;-85
2021/06/21 14:24:43;;;;;;;13.60;3.28;;;;;;;;;;4994470;28;20054;-83
2021/06/21 14:27:09;;;;;;;7.45;2.00;;;;;;;;;;4994538;28;20042;-83
2021/06/21 14:29:36;;;;;;;13.48;2.50;;;;;;;;;;4993145;28;20129;-84
2021/06/21 14:32:03;;;;;;;8.32;1.80;;;;;;;;;;4994835;28;20050;-84
2021/06/21 14:34:30;;;;;;;9.95;2.47;;;;;;;;;;4994851;28;20046;-83
2021/06/21 14:36:58;;;;;;;7.95;2.10;;;;;;;;;;4995702;28;20057;-84
2021/06/21 14:39:25;;;;;;;9.05;2.33;;;;;;;;;;4992624;28;20059;-84
2021/06/21 14:41:51;;;;;;;7.32;2.25;;;;;;;;;;4985512;28;20046;-84
2021/06/21 14:44:18;;;;;;;7.53;2.30;;;;;;;;;;4987964;28;20058;-84
2021/06/21 14:46:44;;;;;;;6.90;2.45;;;;;;;;;;4992489;28;20043;-87
2021/06/21 14:49:11;;;;;;;6.63;1.60;;;;;;;;;;4995867;28;20046;-84
2021/06/21 14:51:39;;;;;;;5.57;1.95;;;;;;;;;;4979078;28;20135;-86
2021/06/21 14:54:06;;;;;;;6.00;1.80;;;;;;;;;;4987133;28;20047;-85
2021/06/21 14:56:33;;;;;;;4.40;1.67;;;;;;;;;;4996006;28;20054;-85